This is the latest recevied weather packets stored in our database for station/object CA2JAT-13. If no packets are shown the sender has not sent any weather packets the latest 10 day(s).
| Time | Temp. | Humidity | Pressure | Rain* | Wind** | Luminosity | Snow |
|---|---|---|---|---|---|---|---|
| 1778013457 | 20.56° C | 46% | 1013.6 hPa | 0 mm | - | 146 W/m² | - |
| 1778011654 | 21.67° C | 40% | 1013.6 hPa | 0 mm | - | 204 W/m² | - |
| 1778009851 | 21.11° C | 42% | 1014 hPa | 0 mm | - | 364 W/m² | - |
| 1778008049 | 21.67° C | 40% | 1014.4 hPa | 0 mm | - | 380 W/m² | - |
| 1778006247 | 22.22° C | 37% | 1014.1 hPa | 0 mm | - | 374 W/m² | - |
| 1778004443 | 22.22° C | 36% | 1014.1 hPa | 0 mm | - | 707 W/m² | - |
| 1778000838 | 22.78° C | 31% | 1014.3 hPa | 0 mm | - | 682 W/m² | - |
| 1777999036 | 22.22° C | 31% | 1014.5 hPa | 0 mm | - | 652 W/m² | - |
| 1777997233 | 20.56° C | 33% | 1015.5 hPa | 0 mm | - | 622 W/m² | - |
| 1777995430 | 19.44° C | 35% | 1016.1 hPa | 0 mm | - | 571 W/m² | - |
| 1777993627 | 17.22° C | 39% | 1016.9 hPa | 0 mm | - | 512 W/m² | - |
| 1777991825 | 16.11° C | 43% | 1017.3 hPa | 0 mm | - | 441 W/m² | - |
| 1777990021 | 15.56° C | 43% | 1017.5 hPa | 0 mm | - | 362 W/m² | - |
| 1777988219 | 15° C | 42% | 1017.6 hPa | 0 mm | - | 323 W/m² | - |
| 1777986384 | 9.44° C | 55% | 1019.5 hPa | 0 mm | - | 85 W/m² | - |
| 1777984582 | 6.67° C | 66% | 1019.9 hPa | 0 mm | - | 101 W/m² | - |
| 1777982779 | 6.67° C | 66% | 1019 hPa | 0 mm | - | 7 W/m² | - |
| 1777980976 | 6.67° C | 66% | 1018.8 hPa | 0 mm | - | 0 W/m² | - |
| 1777977371 | 6.67° C | 65% | 1017.8 hPa | 0 mm | - | 0 W/m² | - |
| 1777975568 | 7.22° C | 61% | 1017 hPa | 0 mm | - | 0 W/m² | - |
| 1777973765 | 7.22° C | 63% | 1017.1 hPa | 0 mm | - | 0 W/m² | - |
| 1777971962 | 7.78° C | 61% | 1016.9 hPa | 0 mm | - | 0 W/m² | - |
| 1777970160 | 7.78° C | 60% | 1017.1 hPa | 0 mm | - | 0 W/m² | - |
| 1777968358 | 8.33° C | 58% | 1016.9 hPa | 0 mm | - | 0 W/m² | - |
| 1777966548 | 8.33° C | 59% | 1017.1 hPa | 0 mm | - | 0 W/m² | - |
* Rain latest hour (hover to see other rain measurements)
** Current wind speed in m/s (hover to see current wind gust speed)